Hovedside
METAR-TAF:

METAR-TAF

Lufthavner :

Sandefjord lufthavn. Torp

Sandefjord, Norge

breddegrad: 59-12N, lengdegrad: 010-16E, høyde over havet: 8 m

Gjeldene værobservasjon

Denne rapporten ble laget for 34 minutter siden, klokken 09:20 UTC
Vind 11 kt fra Nord
Temperatur -5°C
Luftfuktighet 93%
Trykk 1034 hPa
Sikt 10 km eller mer
Få skyer i en høyde av 1000 ft
Overskyet i en høyde av 2000 ft

METAR: ENTO 130920Z 36011KT 9999 FEW010 OVC020 M05/M06 Q1034

Tid: 10:54 (09:54 UTC)

Varsel

Varsel gyldig fra 13. klokken 06 UTC til 14. klokken 06 UTC
Vind 7 kt fra Nord
Sikt 10 km eller mer
Brutte skyer i en høyde av 400 ft
Midlertidig
fra 13. klokken 06 UTC til 13. klokken 09 UTC
Få skyer i en høyde av 700 ft
Brutte skyer i en høyde av 1000 ft
Blir
fra 13. klokken 09 UTC til 13. klokken 12 UTC
Brutte skyer i en høyde av 1500 ft

TAF: ENTO 1306/1406 35007KT 9999 BKN004 TEMPO 1306/1309 FEW007 BKN010 BECMG 1309/1312 BKN015

Værobservasjoner og værvarsel for over 4000 flyplasser (METAR- og TAF-rapporter).

Tilgjengelige stasjoner er representert av de røde og gule prikkene på kartet.

Hold musepekeren over prikken for å se navnet på stasjonen.

Klikk så for å se værobservasjoner og -varsler.

For å forandre kartet kan du klikke på den grønne knappen med svart kryss for å zoome inn, på den grønne knappen med strek for å zoome ut, eller på de grønne pilene for å se tilstøtende kart.


METAR-TAF: